Time;durP1;ratioP1;P1;durP2;ratioP2;P2;SDS_P1;SDS_P2;PMS_P1;PMS_P2;Temp;Humidity;BMP_temperature;BMP_pressure;BME280_temperature;BME280_humidity;BME280_pressure;Samples;Min_cycle;Max_cycle;Signal;HPM_P1;HPM_P2
2022/11/29 00:01:46;;;;;;;38.33;18.40;;;;;;;4.03;100.00;101219.16;7390064;19;20974;-56
2022/11/29 00:04:15;;;;;;;36.53;17.90;;;;;;;3.94;100.00;101221.03;7389038;19;20427;-59
2022/11/29 00:06:45;;;;;;;37.33;18.20;;;;;;;3.98;100.00;101225.56;7390046;19;20429;-59
2022/11/29 00:09:15;;;;;;;44.33;19.17;;;;;;;3.95;100.00;101212.56;7392830;19;20403;-59
2022/11/29 00:14:28;;;;;;;38.00;19.00;;;;;;;3.72;100.00;101217.72;7391006;19;20426;-59
2022/11/29 00:17:03;;;;;;;41.63;18.87;;;;;;;3.80;100.00;101210.66;7389626;19;20403;-59
2022/11/29 00:19:33;;;;;;;46.10;18.70;;;;;;;3.83;100.00;101208.31;7392530;19;20399;-58
2022/11/29 00:22:03;;;;;;;40.20;19.00;;;;;;;3.73;100.00;101211.81;7390068;19;20411;-59
2022/11/29 00:24:33;;;;;;;49.60;20.90;;;;;;;3.79;100.00;101203.72;7391160;19;20959;-59
2022/11/29 00:27:03;;;;;;;42.60;21.17;;;;;;;3.82;100.00;101201.44;7390517;19;20407;-59
2022/11/29 00:29:32;;;;;;;42.60;21.27;;;;;;;3.99;100.00;101206.94;7392250;19;20393;-59
2022/11/29 00:32:04;;;;;;;41.37;20.07;;;;;;;3.78;100.00;101201.97;7390895;19;21059;-59
2022/11/29 00:34:34;;;;;;;51.57;20.70;;;;;;;3.75;100.00;101200.06;7390713;19;20443;-59
2022/11/29 00:37:03;;;;;;;46.43;21.00;;;;;;;3.85;100.00;101206.75;7390538;19;20936;-56
2022/11/29 00:39:33;;;;;;;38.40;19.40;;;;;;;3.87;100.00;101194.13;7392853;19;20415;-59
2022/11/29 00:42:02;;;;;;;42.50;19.70;;;;;;;3.79;100.00;101201.19;7389784;19;20419;-58
2022/11/29 00:44:31;;;;;;;45.00;21.43;;;;;;;3.81;100.00;101199.66;7391627;19;20423;-55
2022/11/29 00:47:03;;;;;;;45.87;22.30;;;;;;;3.83;100.00;101195.53;7393809;19;20483;-58
2022/11/29 00:49:33;;;;;;;46.87;20.70;;;;;;;3.90;100.00;101192.69;7392224;19;20407;-59
2022/11/29 00:52:02;;;;;;;41.93;20.37;;;;;;;3.88;100.00;101194.25;7389355;19;20446;-55
2022/11/29 00:54:32;;;;;;;44.70;19.73;;;;;;;3.74;100.00;101199.97;7391315;19;20427;-58
2022/11/29 00:57:01;;;;;;;43.70;21.40;;;;;;;3.61;100.00;101198.13;7390051;19;20966;-55
2022/11/29 00:59:31;;;;;;;52.23;21.80;;;;;;;3.70;100.00;101193.72;7393048;19;20745;-57
2022/11/29 01:02:03;;;;;;;50.13;22.20;;;;;;;3.71;100.00;101194.63;7389362;19;20434;-57
2022/11/29 01:04:33;;;;;;;42.83;21.63;;;;;;;3.67;100.00;101198.59;7391108;19;20428;-58
2022/11/29 01:07:02;;;;;;;45.50;22.10;;;;;;;3.74;100.00;101199.97;7390662;19;20435;-56
2022/11/29 01:09:32;;;;;;;48.97;21.97;;;;;;;3.76;100.00;101200.97;7392989;19;20396;-59
2022/11/29 01:12:01;;;;;;;46.47;22.03;;;;;;;3.66;100.00;101196.81;7384519;19;20415;-58
2022/11/29 01:14:30;;;;;;;45.27;22.10;;;;;;;3.82;100.00;101193.78;7395233;19;20431;-58
2022/11/29 01:17:00;;;;;;;45.43;22.50;;;;;;;3.70;100.00;101195.38;7390119;19;20820;-60
2022/11/29 01:19:32;;;;;;;53.10;22.10;;;;;;;3.74;100.00;101198.28;7392110;19;20743;-58
2022/11/29 01:22:02;;;;;;;45.53;22.40;;;;;;;3.77;100.00;101200.19;7389065;19;20423;-58
2022/11/29 01:24:31;;;;;;;46.47;21.20;;;;;;;3.67;100.00;101200.25;7390390;19;20416;-58
2022/11/29 01:27:01;;;;;;;48.60;22.87;;;;;;;3.85;100.00;101191.44;7389743;19;20771;-58
2022/11/29 01:29:30;;;;;;;50.93;22.70;;;;;;;3.73;100.00;101205.81;7392195;19;20766;-58
2022/11/29 01:31:59;;;;;;;49.67;22.93;;;;;;;3.76;100.00;101196.72;7389306;19;20401;-57
2022/11/29 01:34:32;;;;;;;47.57;22.50;;;;;;;3.58;100.00;101196.22;7390540;19;20438;-57
2022/11/29 01:37:01;;;;;;;50.90;21.97;;;;;;;3.62;100.00;101200.81;7388678;19;20434;-58
2022/11/29 01:39:30;;;;;;;49.57;23.67;;;;;;;3.54;100.00;101196.75;7392179;19;20396;-58
2022/11/29 01:42:01;;;;;;;45.90;21.87;;;;;;;3.70;100.00;101195.38;7388854;19;20415;-58
2022/11/29 01:45:02;;;;;;;48.00;22.40;;;;;;;3.62;100.00;101194.78;7389504;19;21283;-54
2022/11/29 01:47:32;;;;;;;50.63;24.13;;;;;;;3.83;100.00;101199.75;7394417;19;20434;-59
2022/11/29 01:50:04;;;;;;;45.10;21.73;;;;;;;3.72;100.00;101198.94;7395373;19;20785;-58
2022/11/29 01:52:34;;;;;;;47.53;22.23;;;;;;;3.80;100.00;101203.00;7388506;19;20439;-55
2022/11/29 01:55:06;;;;;;;48.23;23.40;;;;;;;3.78;100.00;101205.41;7392408;19;20387;-57
2022/11/29 01:57:37;;;;;;;47.43;22.23;;;;;;;3.71;100.00;101203.16;7389549;19;20411;-55
2022/11/29 02:00:10;;;;;;;48.40;22.90;;;;;;;3.58;100.00;101201.31;7391699;19;20384;-56
2022/11/29 02:02:42;;;;;;;46.70;22.77;;;;;;;3.52;100.00;101205.94;7390835;19;20431;-58
2022/11/29 02:05:16;;;;;;;48.40;22.27;;;;;;;3.75;100.00;101204.28;7391323;19;20398;-58
2022/11/29 02:07:48;;;;;;;51.37;24.53;;;;;;;3.68;100.00;101209.72;7389841;19;20422;-56
2022/11/29 02:10:18;;;;;;;52.73;22.67;;;;;;;3.81;100.00;101199.66;7391447;19;20400;-55
2022/11/29 02:12:56;;;;;;;50.80;23.07;;;;;;;3.70;100.00;101200.50;7388013;19;20824;-58
2022/11/29 02:15:41;;;;;;;55.00;23.93;;;;;;;3.65;100.00;101203.56;7386861;19;20430;-58
2022/11/29 02:18:14;;;;;;;51.63;23.93;;;;;;;3.36;100.00;101211.53;7390092;19;21393;-58
2022/11/29 02:21:28;;;;;;;50.90;23.67;;;;;;;3.53;100.00;101207.72;7389494;19;20807;-58
2022/11/29 02:24:26;;;;;;;54.33;23.53;;;;;;;3.41;100.00;101211.88;7393166;19;20546;-58
2022/11/29 02:27:28;;;;;;;53.37;23.13;;;;;;;3.28;100.00;101208.38;7387226;19;20442;-58
2022/11/29 02:30:20;;;;;;;56.53;23.90;;;;;;;3.28;100.00;101208.38;7391113;19;20391;-59
2022/11/29 02:33:37;;;;;;;47.67;23.10;;;;;;;3.41;100.00;101206.78;7387119;19;20434;-58
2022/11/29 02:36:42;;;;;;;59.33;25.30;;;;;;;3.42;100.00;101211.09;7387759;19;20423;-58
2022/11/29 02:39:40;;;;;;;60.60;26.17;;;;;;;3.59;100.00;101213.31;7389797;19;20423;-58
2022/11/29 02:42:30;;;;;;;48.93;23.53;;;;;;;3.47;100.00;101218.34;7389850;19;20462;-58
2022/11/29 02:45:09;;;;;;;46.43;22.20;;;;;;;3.45;100.00;101216.47;7393472;19;20763;-58
2022/11/29 02:47:50;;;;;;;57.43;26.20;;;;;;;3.34;100.00;101215.63;7387989;19;20426;-57
2022/11/29 02:50:22;;;;;;;61.60;24.73;;;;;;;3.31;100.00;101215.38;7390901;19;21044;-57
2022/11/29 02:52:59;;;;;;;59.50;25.40;;;;;;;3.44;100.00;101219.78;7387987;19;20451;-56
2022/11/29 02:55:36;;;;;;;63.47;25.93;;;;;;;3.43;100.00;101215.47;7389198;19;20766;-58
2022/11/29 02:58:13;;;;;;;57.80;24.17;;;;;;;3.35;100.00;101220.81;7386408;19;20435;-56
2022/11/29 03:00:48;;;;;;;54.07;22.40;;;;;;;3.32;100.00;101225.69;7388270;19;20390;-58
2022/11/29 03:03:22;;;;;;;57.50;26.37;;;;;;;3.40;100.00;101222.84;7387000;19;20439;-59
2022/11/29 03:05:55;;;;;;;49.23;23.23;;;;;;;3.38;100.00;101231.28;7389961;19;20958;-58
2022/11/29 03:08:28;;;;;;;55.40;25.00;;;;;;;3.38;100.00;101227.84;7389180;19;20422;-55
2022/11/29 03:11:08;;;;;;;52.30;23.93;;;;;;;3.81;100.00;101224.28;7390864;19;20414;-57
2022/11/29 03:13:47;;;;;;;55.03;24.87;;;;;;;3.43;100.00;101230.75;7388582;19;20431;-58
2022/11/29 03:16:23;;;;;;;58.00;24.50;;;;;;;3.63;100.00;101239.94;7387583;19;20412;-56
2022/11/29 03:19:02;;;;;;;58.13;25.20;;;;;;;3.37;100.00;101238.81;7387929;19;20402;-58
2022/11/29 03:21:39;;;;;;;52.30;24.27;;;;;;;3.49;100.00;101241.44;7386516;19;20949;-56
2022/11/29 03:24:11;;;;;;;62.60;25.87;;;;;;;3.55;100.00;101241.94;7388107;19;20810;-57
2022/11/29 03:26:47;;;;;;;51.70;23.37;;;;;;;3.50;100.00;101244.09;7387177;19;20924;-57
2022/11/29 03:29:23;;;;;;;53.23;24.43;;;;;;;3.59;100.00;101243.94;7389563;19;20399;-53
2022/11/29 03:31:57;;;;;;;63.97;27.50;;;;;;;3.36;100.00;101250.69;7386644;19;20402;-58
2022/11/29 03:34:34;;;;;;;50.80;25.63;;;;;;;3.33;100.00;101255.53;7387621;19;20416;-54
2022/11/29 03:37:09;;;;;;;53.97;24.57;;;;;;;3.61;100.00;101250.06;7385888;19;20428;-56
2022/11/29 03:39:44;;;;;;;59.40;24.50;;;;;;;3.39;100.00;101255.16;7393020;19;20379;-56
2022/11/29 03:42:21;;;;;;;57.30;25.90;;;;;;;3.41;100.00;101253.59;7393361;19;20421;-57
2022/11/29 03:44:56;;;;;;;52.07;23.83;;;;;;;3.54;100.00;101258.00;7394070;19;20457;-54
2022/11/29 03:47:30;;;;;;;58.37;24.80;;;;;;;3.43;100.00;101261.38;7395387;19;20439;-58
2022/11/29 03:50:03;;;;;;;58.67;23.87;;;;;;;3.56;100.00;101258.13;7396237;19;20748;-58
2022/11/29 03:52:36;;;;;;;53.03;24.23;;;;;;;3.48;100.00;101260.06;7393335;19;20415;-55
2022/11/29 03:55:15;;;;;;;57.93;25.67;;;;;;;3.45;100.00;101254.72;7395744;19;20396;-57
2022/11/29 03:57:52;;;;;;;58.23;26.13;;;;;;;3.46;100.00;101254.84;7392472;19;20427;-58
2022/11/29 04:00:23;;;;;;;55.27;26.67;;;;;;;3.40;100.00;101253.47;7395912;19;20367;-56
2022/11/29 04:03:23;;;;;;;64.07;26.23;;;;;;;3.44;100.00;101263.16;7391492;19;20413;-57
2022/11/29 04:06:32;;;;;;;64.67;26.67;;;;;;;3.57;100.00;101265.00;7393707;19;20942;-56
2022/11/29 04:09:34;;;;;;;53.27;24.07;;;;;;;3.55;100.00;101262.34;7395125;19;20427;-58
2022/11/29 04:12:15;;;;;;;59.00;27.10;;;;;;;3.46;100.00;101261.59;7391597;19;20406;-57
2022/11/29 04:15:21;;;;;;;57.83;26.23;;;;;;;3.41;100.00;101273.09;7395064;19;20423;-57
2022/11/29 04:18:18;;;;;;;52.27;24.73;;;;;;;3.50;100.00;101269.63;7390314;19;20791;-55
2022/11/29 04:21:01;;;;;;;54.93;25.47;;;;;;;3.48;100.00;101270.25;7398135;19;20404;-57
2022/11/29 04:23:59;;;;;;;57.87;26.27;;;;;;;3.40;100.00;101284.09;7393274;19;20968;-57
2022/11/29 04:26:58;;;;;;;61.53;26.53;;;;;;;3.54;100.00;101283.50;7392530;19;21293;-58
2022/11/29 04:30:03;;;;;;;57.47;26.10;;;;;;;3.52;100.00;101285.06;7394831;19;20416;-57
2022/11/29 04:33:12;;;;;;;59.03;26.20;;;;;;;3.63;100.00;101284.25;7388116;19;20426;-58
2022/11/29 04:36:02;;;;;;;55.50;25.80;;;;;;;3.71;100.00;101292.50;7393516;19;20925;-59
2022/11/29 04:38:49;;;;;;;55.47;25.70;;;;;;;3.49;100.00;101295.03;7393346;19;20435;-56
2022/11/29 04:41:43;;;;;;;57.30;26.03;;;;;;;3.41;100.00;101301.16;7391159;19;20404;-55
2022/11/29 04:44:33;;;;;;;53.33;23.30;;;;;;;3.70;100.00;101298.34;7392617;19;20474;-58
2022/11/29 04:47:15;;;;;;;55.37;26.70;;;;;;;3.58;100.00;101302.53;7393781;19;20419;-57
2022/11/29 04:49:59;;;;;;;54.20;24.30;;;;;;;3.56;100.00;101301.50;7393652;19;20909;-55
2022/11/29 04:52:43;;;;;;;59.47;26.03;;;;;;;3.68;100.00;101309.25;7389477;19;20419;-58
2022/11/29 04:55:20;;;;;;;53.13;24.43;;;;;;;3.52;100.00;101313.13;7393888;19;20921;-57
2022/11/29 04:58:04;;;;;;;117.20;47.50;;;;;;;3.76;100.00;101313.28;7391032;19;20435;-54
2022/11/29 05:00:39;;;;;;;72.40;30.70;;;;;;;3.80;100.00;101305.09;7391659;19;20379;-54
2022/11/29 05:03:13;;;;;;;61.03;28.43;;;;;;;3.83;100.00;101310.44;7387701;19;20426;-57
2022/11/29 05:05:45;;;;;;;72.93;28.80;;;;;;;3.68;100.00;101310.13;7391105;19;20411;-52
2022/11/29 05:08:26;;;;;;;65.83;28.87;;;;;;;3.58;100.00;101313.59;7387973;19;20431;-55
2022/11/29 05:11:05;;;;;;;57.27;26.20;;;;;;;3.59;100.00;101322.16;7389460;19;20398;-53
2022/11/29 05:13:42;;;;;;;60.90;27.97;;;;;;;3.55;100.00;101318.47;7393814;19;20430;-59
2022/11/29 05:16:17;;;;;;;57.20;25.83;;;;;;;3.62;100.00;101318.19;7389550;19;20417;-57
2022/11/29 05:18:59;;;;;;;61.20;25.67;;;;;;;3.55;100.00;101318.47;7389858;19;20937;-56
2022/11/29 05:21:35;;;;;;;62.13;27.40;;;;;;;3.53;100.00;101327.66;7387537;19;20441;-57
2022/11/29 05:24:15;;;;;;;60.67;26.03;;;;;;;3.55;100.00;101321.03;7389278;19;20423;-54
2022/11/29 05:26:52;;;;;;;73.90;30.90;;;;;;;3.50;100.00;101335.09;7389247;19;20958;-57
2022/11/29 05:29:27;;;;;;;64.13;29.60;;;;;;;3.66;100.00;101332.09;7390999;19;20410;-55
2022/11/29 05:32:01;;;;;;;65.87;28.37;;;;;;;3.74;100.00;101336.13;7387975;19;20410;-53
2022/11/29 05:34:38;;;;;;;64.23;27.80;;;;;;;3.67;100.00;101338.06;7388687;19;20419;-58
2022/11/29 05:37:16;;;;;;;55.10;26.17;;;;;;;3.67;100.00;101343.16;7386815;19;20433;-58
2022/11/29 05:39:59;;;;;;;61.10;27.80;;;;;;;3.59;100.00;101346.00;7390337;19;20429;-57
2022/11/29 05:42:52;;;;;;;58.67;27.40;;;;;;;3.55;100.00;101344.00;7387584;19;20419;-55
2022/11/29 05:45:26;;;;;;;68.80;27.27;;;;;;;3.37;100.00;101349.41;7391287;19;20388;-59
2022/11/29 05:48:01;;;;;;;62.73;27.40;;;;;;;3.34;100.00;101359.34;7389174;19;20403;-57
2022/11/29 05:50:35;;;;;;;60.40;27.57;;;;;;;3.29;100.00;101353.00;7389848;19;20387;-58
2022/11/29 05:53:15;;;;;;;68.90;28.40;;;;;;;3.37;100.00;101354.50;7387088;19;21017;-56
2022/11/29 05:55:55;;;;;;;71.87;31.17;;;;;;;3.41;100.00;101359.84;7391485;19;20418;-55
2022/11/29 05:58:29;;;;;;;66.07;31.40;;;;;;;3.36;100.00;101357.84;7390381;19;20443;-58
2022/11/29 06:01:05;;;;;;;72.00;28.50;;;;;;;3.15;100.00;101367.19;7387728;19;20394;-57
2022/11/29 06:03:38;;;;;;;62.33;27.90;;;;;;;2.98;100.00;101365.81;7388847;19;20426;-55
2022/11/29 06:06:13;;;;;;;67.77;29.30;;;;;;;2.87;100.00;101356.38;7388874;19;20422;-56
2022/11/29 06:08:48;;;;;;;60.17;28.17;;;;;;;2.83;100.00;101368.00;7390897;19;20409;-56
2022/11/29 06:11:23;;;;;;;57.53;26.53;;;;;;;2.76;100.00;101366.56;7388322;19;20418;-58
2022/11/29 06:14:04;;;;;;;62.90;28.80;;;;;;;2.74;100.00;101370.66;7390034;19;20956;-58
2022/11/29 06:16:44;;;;;;;61.30;28.17;;;;;;;2.69;100.00;101374.47;7391471;19;20402;-57
2022/11/29 06:19:36;;;;;;;69.37;29.37;;;;;;;2.58;100.00;101370.13;7390771;19;20383;-55
2022/11/29 06:22:19;;;;;;;74.60;30.43;;;;;;;2.59;100.00;101367.72;7388795;19;20411;-58
2022/11/29 06:25:07;;;;;;;68.10;29.53;;;;;;;2.58;100.00;101363.38;7390329;19;20431;-57
2022/11/29 06:27:56;;;;;;;70.83;30.20;;;;;;;2.54;100.00;101372.44;7389556;19;20905;-53
2022/11/29 06:30:29;;;;;;;72.20;30.70;;;;;;;2.58;100.00;101359.94;7391355;19;20398;-58
2022/11/29 06:33:04;;;;;;;71.10;31.07;;;;;;;2.54;100.00;101362.25;7387447;19;20958;-57
2022/11/29 06:35:39;;;;;;;68.77;31.80;;;;;;;2.56;100.00;101368.34;7392730;19;20791;-60
2022/11/29 06:38:14;;;;;;;70.47;30.77;;;;;;;2.54;100.00;101369.88;7387247;19;20419;-58
2022/11/29 06:40:44;;;;;;;65.53;30.03;;;;;;;2.53;100.00;101375.75;7392055;19;20379;-57
2022/11/29 06:43:17;;;;;;;70.37;28.67;;;;;;;2.49;100.00;101378.78;7387163;19;20447;-57
2022/11/29 06:45:50;;;;;;;76.33;31.67;;;;;;;2.52;100.00;101375.63;7391034;19;20403;-58
2022/11/29 06:48:23;;;;;;;72.50;30.83;;;;;;;2.56;100.00;101377.63;7389597;19;20962;-54
2022/11/29 06:51:02;;;;;;;69.17;30.13;;;;;;;2.53;100.00;101373.19;7388271;19;20730;-58
2022/11/29 06:53:39;;;;;;;72.53;31.40;;;;;;;2.55;100.00;101374.22;7389194;19;20423;-60
2022/11/29 06:56:17;;;;;;;81.70;31.50;;;;;;;2.53;100.00;101370.66;7388684;19;20386;-59
2022/11/29 06:58:53;;;;;;;80.10;32.23;;;;;;;2.61;100.00;101367.84;7390406;19;20414;-60
2022/11/29 07:01:28;;;;;;;74.43;31.63;;;;;;;2.55;100.00;101371.66;7387301;19;20386;-58
2022/11/29 07:04:09;;;;;;;70.77;32.07;;;;;;;2.58;100.00;101380.31;7389196;19;20415;-58
2022/11/29 07:06:39;;;;;;;71.17;30.23;;;;;;;2.64;100.00;101369.00;7387818;19;20918;-56
2022/11/29 07:09:13;;;;;;;62.90;28.50;;;;;;;2.66;100.00;101370.00;7390021;19;20372;-56
2022/11/29 07:11:43;;;;;;;74.63;32.60;;;;;;;2.68;100.00;101373.56;7387385;19;20418;-60
2022/11/29 07:14:16;;;;;;;66.27;30.33;;;;;;;2.60;100.00;101369.50;7394619;19;20787;-59
2022/11/29 07:16:53;;;;;;;65.83;29.30;;;;;;;3.01;100.00;101368.59;7395357;19;20417;-58
2022/11/29 07:19:34;;;;;;;68.87;31.23;;;;;;;3.04;100.00;101376.50;7396325;19;20399;-59
2022/11/29 07:22:11;;;;;;;66.90;31.17;;;;;;;3.03;100.00;101372.16;7393869;19;20411;-55
2022/11/29 07:24:53;;;;;;;68.20;29.50;;;;;;;2.87;100.00;101384.41;7394861;19;20438;-57
2022/11/29 07:27:28;;;;;;;70.43;31.07;;;;;;;2.83;100.00;101389.25;7394692;19;20427;-56
2022/11/29 07:30:12;;;;;;;75.53;31.07;;;;;;;2.76;100.00;101386.97;7397338;19;20383;-58
2022/11/29 07:32:55;;;;;;;64.73;28.33;;;;;;;2.73;100.00;101385.81;7391775;19;20414;-57
2022/11/29 07:35:35;;;;;;;72.43;30.27;;;;;;;2.73;100.00;101391.81;7397127;19;20413;-54
2022/11/29 07:38:11;;;;;;;73.63;30.37;;;;;;;2.72;100.00;101394.22;7394053;19;20967;-55
2022/11/29 07:40:47;;;;;;;77.03;31.90;;;;;;;2.84;100.00;101388.47;7395317;19;20410;-59
2022/11/29 07:43:24;;;;;;;72.13;30.87;;;;;;;3.07;100.00;101383.50;7392826;19;20419;-59
2022/11/29 07:45:57;;;;;;;75.90;32.40;;;;;;;3.22;100.00;101383.88;7394012;19;20474;-58
2022/11/29 07:48:27;;;;;;;71.07;30.60;;;;;;;3.09;100.00;101380.31;7396104;19;20396;-59
2022/11/29 07:50:56;;;;;;;75.20;32.77;;;;;;;3.15;100.00;101386.69;7394260;19;20399;-56
2022/11/29 07:53:26;;;;;;;78.70;31.90;;;;;;;3.15;100.00;101391.78;7394904;19;20438;-58
2022/11/29 07:55:55;;;;;;;68.70;29.60;;;;;;;3.20;100.00;101390.50;7393858;19;20396;-59
2022/11/29 07:58:24;;;;;;;70.13;29.73;;;;;;;3.16;100.00;101398.66;7395992;19;20745;-58
2022/11/29 08:00:57;;;;;;;70.20;32.77;;;;;;;3.09;100.00;101399.84;7391430;19;20414;-59
2022/11/29 08:03:26;;;;;;;68.10;31.27;;;;;;;3.03;100.00;101407.84;7393798;19;20971;-58
2022/11/29 08:05:55;;;;;;;65.73;29.70;;;;;;;3.05;100.00;101413.09;7394031;19;20388;-58
2022/11/29 08:08:25;;;;;;;65.40;29.13;;;;;;;3.12;100.00;101417.06;7395749;19;20797;-57
2022/11/29 08:10:54;;;;;;;64.73;29.40;;;;;;;2.96;100.00;101431.06;7393681;19;20395;-57
2022/11/29 08:13:24;;;;;;;62.07;30.17;;;;;;;2.88;100.00;101427.91;7394689;19;20415;-58
2022/11/29 08:15:53;;;;;;;68.27;30.67;;;;;;;2.82;100.00;101437.56;7394520;19;20388;-57
2022/11/29 08:18:26;;;;;;;69.80;31.53;;;;;;;2.88;100.00;101430.44;7395360;19;20760;-58
2022/11/29 08:20:55;;;;;;;87.73;39.47;;;;;;;3.02;100.00;101421.38;7391598;19;20384;-56
2022/11/29 08:23:25;;;;;;;84.50;36.37;;;;;;;3.11;100.00;101421.25;7394379;19;20427;-58
2022/11/29 08:26:01;;;;;;;79.17;35.00;;;;;;;3.04;100.00;101430.06;7390612;19;20430;-58
2022/11/29 08:28:30;;;;;;;79.43;34.07;;;;;;;3.05;100.00;101425.84;7395831;19;20442;-58
2022/11/29 08:31:03;;;;;;;61.13;29.53;;;;;;;3.06;100.00;101430.16;7392280;19;20411;-58
2022/11/29 08:33:36;;;;;;;66.90;31.53;;;;;;;3.07;100.00;101439.59;7394223;19;20423;-57
2022/11/29 08:36:07;;;;;;;66.63;30.30;;;;;;;2.95;100.00;101434.38;7393183;19;20407;-57
2022/11/29 08:38:36;;;;;;;64.90;29.43;;;;;;;2.89;100.00;101438.97;7394688;19;20913;-57
2022/11/29 08:41:08;;;;;;;63.80;29.20;;;;;;;2.85;100.00;101442.91;7390447;19;21865;-59
2022/11/29 08:43:37;;;;;;;60.30;29.63;;;;;;;2.83;100.00;101441.91;7398659;19;20430;-54
2022/11/29 08:46:07;;;;;;;69.50;30.73;;;;;;;2.84;100.00;101451.34;7392171;19;20379;-57
2022/11/29 08:48:44;;;;;;;71.87;31.67;;;;;;;2.90;100.00;101454.41;7395488;19;20402;-58
2022/11/29 08:51:14;;;;;;;64.03;30.13;;;;;;;2.92;100.00;101457.09;7392056;19;21293;-57
2022/11/29 08:53:40;;;;;;;65.40;30.00;;;;;;;2.94;100.00;101455.53;7394172;19;20430;-59
2022/11/29 08:56:11;;;;;;;66.03;30.13;;;;;;;2.91;100.00;101462.91;7392251;19;20396;-59
2022/11/29 08:59:01;;;;;;;59.17;29.43;;;;;;;2.86;100.00;101464.22;7394973;19;20410;-57
2022/11/29 09:01:31;;;;;;;71.00;30.50;;;;;;;2.85;100.00;101463.31;7389462;19;20975;-58
2022/11/29 09:04:09;;;;;;;63.57;30.27;;;;;;;2.87;100.00;101466.88;7392759;19;20426;-60
2022/11/29 09:06:40;;;;;;;64.90;30.70;;;;;;;2.86;100.00;101469.31;7392078;19;20414;-59
2022/11/29 09:09:09;;;;;;;71.67;32.27;;;;;;;2.83;100.00;101467.41;7393910;19;20392;-56
2022/11/29 09:11:39;;;;;;;65.93;30.50;;;;;;;2.88;100.00;101462.69;7390861;19;20411;-57
2022/11/29 09:14:09;;;;;;;58.37;28.50;;;;;;;2.86;100.00;101469.31;7392439;19;20419;-56
2022/11/29 09:16:40;;;;;;;63.23;30.07;;;;;;;2.86;100.00;101471.88;7391456;19;20391;-55
2022/11/29 09:19:12;;;;;;;59.83;29.40;;;;;;;2.90;100.00;101477.34;7393982;19;20397;-60
2022/11/29 09:21:41;;;;;;;73.67;32.77;;;;;;;2.90;100.00;101476.44;7390063;19;20453;-58
2022/11/29 09:24:11;;;;;;;61.53;29.40;;;;;;;2.91;100.00;101484.22;7392015;19;20458;-56
2022/11/29 09:26:41;;;;;;;65.60;31.23;;;;;;;2.86;100.00;101482.06;7391015;19;20414;-59
2022/11/29 09:29:12;;;;;;;67.50;31.07;;;;;;;2.88;100.00;101491.63;7393102;19;20395;-58
2022/11/29 09:31:41;;;;;;;67.00;29.80;;;;;;;2.89;100.00;101488.31;7391527;19;20399;-57
2022/11/29 09:34:13;;;;;;;68.37;30.23;;;;;;;2.81;100.00;101495.28;7391775;19;20808;-57
2022/11/29 09:36:43;;;;;;;82.83;33.23;;;;;;;2.98;100.00;101488.19;7390131;19;20415;-56
2022/11/29 09:39:13;;;;;;;79.77;32.50;;;;;;;3.18;100.00;101488.97;7392725;19;20422;-57
2022/11/29 09:42:08;;;;;;;73.33;31.30;;;;;;;3.05;100.00;101485.38;7387622;19;20447;-53
2022/11/29 09:44:45;;;;;;;77.13;31.83;;;;;;;3.07;100.00;101485.50;7394731;19;20450;-54
2022/11/29 09:47:25;;;;;;;69.00;31.67;;;;;;;3.22;100.00;101473.13;7391247;19;20422;-57
2022/11/29 09:50:07;;;;;;;76.43;34.17;;;;;;;3.17;100.00;101474.44;7393336;19;20390;-57
2022/11/29 09:52:47;;;;;;;67.43;32.53;;;;;;;3.14;100.00;101482.72;7389869;19;20411;-57
2022/11/29 09:55:30;;;;;;;67.37;31.70;;;;;;;3.26;100.00;101485.38;7392478;19;20406;-58
2022/11/29 09:58:02;;;;;;;73.77;32.90;;;;;;;3.23;100.00;101491.13;7389605;19;20449;-57
2022/11/29 10:00:32;;;;;;;71.03;31.43;;;;;;;3.17;100.00;101487.19;7392019;19;20465;-56
2022/11/29 10:03:05;;;;;;;64.70;31.27;;;;;;;3.31;100.00;101491.75;7388009;19;20455;-58
2022/11/29 10:05:45;;;;;;;74.67;32.97;;;;;;;3.36;100.00;101499.78;7392123;19;20392;-58
2022/11/29 10:08:22;;;;;;;70.60;35.77;;;;;;;3.30;100.00;101505.28;7389183;19;20526;-57
2022/11/29 10:10:54;;;;;;;76.97;34.77;;;;;;;3.27;100.00;101499.03;7391439;19;20775;-59
2022/11/29 10:13:26;;;;;;;74.70;35.47;;;;;;;3.25;100.00;101511.66;7393769;19;20451;-58
2022/11/29 10:15:58;;;;;;;67.00;31.30;;;;;;;3.26;100.00;101516.00;7390624;19;20412;-58
2022/11/29 10:18:32;;;;;;;78.70;35.83;;;;;;;3.44;100.00;101510.63;7390814;19;20383;-56
2022/11/29 10:21:06;;;;;;;61.33;31.47;;;;;;;3.36;100.00;101516.00;7388286;19;20420;-55
2022/11/29 10:23:38;;;;;;;61.73;31.30;;;;;;;3.30;100.00;101520.59;7389097;19;20441;-55
2022/11/29 10:26:09;;;;;;;68.97;31.70;;;;;;;3.25;100.00;101532.06;7388647;19;20418;-57
2022/11/29 10:28:42;;;;;;;72.37;31.93;;;;;;;3.19;100.00;101523.91;7390913;19;20383;-55
2022/11/29 10:31:20;;;;;;;69.77;30.40;;;;;;;3.20;100.00;101529.13;7388563;19;20387;-57
2022/11/29 10:33:50;;;;;;;63.97;29.50;;;;;;;3.17;100.00;101525.44;7390229;19;20423;-57
2022/11/29 10:36:29;;;;;;;68.60;31.57;;;;;;;3.17;100.00;101533.09;7391413;19;20387;-53
2022/11/29 10:39:01;;;;;;;69.80;32.70;;;;;;;3.15;100.00;101538.06;7390619;19;20917;-57
2022/11/29 10:41:30;;;;;;;67.03;31.50;;;;;;;3.14;100.00;101543.03;7382847;19;20407;-56
2022/11/29 10:44:01;;;;;;;65.77;30.70;;;;;;;3.17;100.00;101545.84;7389697;19;20407;-54
2022/11/29 10:46:33;;;;;;;64.87;29.70;;;;;;;3.23;100.00;101539.59;7388854;19;20423;-58
2022/11/29 10:49:06;;;;;;;79.57;32.87;;;;;;;3.25;100.00;101532.06;7395625;19;20382;-57
2022/11/29 10:51:38;;;;;;;68.40;32.30;;;;;;;3.34;100.00;101531.94;7394862;19;20411;-56
2022/11/29 10:54:29;;;;;;;75.73;33.20;;;;;;;3.32;100.00;101533.47;7395802;19;20423;-56
2022/11/29 10:57:01;;;;;;;70.67;30.83;;;;;;;3.33;100.00;101536.16;7395490;19;20411;-59
2022/11/29 10:59:32;;;;;;;65.53;33.23;;;;;;;3.33;100.00;101536.16;7399037;19;20410;-58
2022/11/29 11:02:03;;;;;;;63.23;29.90;;;;;;;3.35;100.00;101529.50;7393770;19;20403;-58
2022/11/29 11:04:35;;;;;;;70.03;30.60;;;;;;;3.29;100.00;101530.66;7395663;19;20434;-57
2022/11/29 11:07:07;;;;;;;67.67;32.97;;;;;;;3.25;100.00;101534.63;7394938;19;20442;-58
2022/11/29 11:09:40;;;;;;;83.57;31.43;;;;;;;3.31;100.00;101527.47;7397973;19;20383;-58
2022/11/29 11:12:20;;;;;;;63.53;29.33;;;;;;;3.28;100.00;101532.31;7394167;19;20423;-55
2022/11/29 11:14:50;;;;;;;68.80;32.07;;;;;;;3.31;100.00;101535.13;7394707;19;20788;-56
2022/11/29 11:17:25;;;;;;;62.77;30.13;;;;;;;3.29;100.00;101531.56;7395527;19;20433;-58
2022/11/29 11:19:59;;;;;;;71.27;32.20;;;;;;;3.35;100.00;101533.72;7397366;19;20402;-59
2022/11/29 11:22:32;;;;;;;66.60;31.10;;;;;;;3.36;100.00;101532.97;7392276;19;20435;-57
2022/11/29 11:25:03;;;;;;;63.30;30.90;;;;;;;3.39;100.00;101538.34;7394832;19;20452;-56
2022/11/29 11:27:35;;;;;;;63.07;30.63;;;;;;;3.44;100.00;101531.06;7394367;19;20432;-57
2022/11/29 11:30:07;;;;;;;71.80;32.13;;;;;;;3.90;100.00;101531.41;7397030;19;20400;-58
2022/11/29 11:32:36;;;;;;;64.80;29.83;;;;;;;3.92;100.00;101535.84;7393788;19;20442;-57
2022/11/29 11:35:23;;;;;;;75.00;32.30;;;;;;;3.91;100.00;101536.59;7395039;19;20423;-59
2022/11/29 11:38:00;;;;;;;70.00;30.27;;;;;;;3.91;100.00;101536.59;7393892;19;20446;-58
2022/11/29 11:40:31;;;;;;;69.77;32.57;;;;;;;4.00;100.00;101539.00;7396566;19;20403;-58
2022/11/29 11:43:03;;;;;;;66.23;31.23;;;;;;;4.06;100.00;101538.63;7391278;19;20435;-59
2022/11/29 11:45:35;;;;;;;58.70;28.30;;;;;;;4.15;100.00;101536.81;7397230;19;20377;-54
2022/11/29 11:48:12;;;;;;;68.00;30.77;;;;;;;4.17;100.00;101547.16;7393634;19;20416;-57
2022/11/29 11:50:45;;;;;;;70.03;31.63;;;;;;;4.45;100.00;101550.25;7398988;19;20400;-57
2022/11/29 11:53:24;;;;;;;74.47;33.37;;;;;;;4.49;100.00;101553.94;7392843;19;20446;-58